createdAt,value
2022-12-04T00:01:32.672Z,100.00
2022-12-04T00:04:01.962Z,100.00
2022-12-04T00:06:30.968Z,100.00
2022-12-04T00:09:01.060Z,100.00
2022-12-04T00:11:32.027Z,100.00
2022-12-04T00:14:07.028Z,100.00
2022-12-04T00:16:37.331Z,100.00
2022-12-04T00:19:06.379Z,100.00
2022-12-04T00:21:36.193Z,100.00
2022-12-04T00:24:06.327Z,100.00
2022-12-04T00:26:35.503Z,100.00
2022-12-04T00:29:05.245Z,100.00
2022-12-04T00:31:34.776Z,100.00
2022-12-04T00:34:08.042Z,100.00
2022-12-04T00:36:38.642Z,100.00
2022-12-04T00:39:09.048Z,100.00
2022-12-04T00:41:39.101Z,100.00
2022-12-04T00:44:09.118Z,100.00
2022-12-04T00:46:39.260Z,100.00
2022-12-04T00:49:08.432Z,100.00
2022-12-04T00:51:38.430Z,100.00
2022-12-04T00:54:07.996Z,100.00
2022-12-04T00:56:37.878Z,100.00
2022-12-04T00:59:06.730Z,100.00
2022-12-04T01:01:35.758Z,100.00
2022-12-04T01:04:04.922Z,100.00
2022-12-04T01:06:35.865Z,100.00
2022-12-04T01:09:06.974Z,100.00
2022-12-04T01:11:37.562Z,100.00
2022-12-04T01:14:06.856Z,100.00
2022-12-04T01:16:39.604Z,100.00
2022-12-04T01:19:12.074Z,100.00
2022-12-04T01:21:42.803Z,100.00
2022-12-04T01:24:13.673Z,100.00
2022-12-04T01:26:43.704Z,100.00
2022-12-04T01:29:13.210Z,100.00
2022-12-04T01:31:43.412Z,100.00
2022-12-04T01:34:12.768Z,100.00
2022-12-04T01:36:42.225Z,100.00
2022-12-04T01:39:11.119Z,100.00
2022-12-04T01:41:41.470Z,100.00
2022-12-04T01:44:23.808Z,100.00
2022-12-04T01:47:00.445Z,100.00
2022-12-04T01:49:49.081Z,100.00
2022-12-04T01:52:23.287Z,100.00
2022-12-04T01:54:58.009Z,100.00
2022-12-04T01:57:32.150Z,100.00
2022-12-04T02:00:10.388Z,100.00
2022-12-04T02:02:44.266Z,100.00
2022-12-04T02:05:17.321Z,100.00
2022-12-04T02:07:49.147Z,100.00
2022-12-04T02:10:25.264Z,100.00
2022-12-04T02:13:19.022Z,100.00
2022-12-04T02:16:03.068Z,100.00
2022-12-04T02:19:13.230Z,100.00
2022-12-04T02:21:48.488Z,100.00
2022-12-04T02:24:25.046Z,100.00
2022-12-04T02:27:10.378Z,100.00
2022-12-04T02:29:58.119Z,100.00
2022-12-04T02:32:46.954Z,100.00
2022-12-04T02:35:23.679Z,100.00
2022-12-04T02:38:05.718Z,100.00
2022-12-04T02:41:07.166Z,100.00
2022-12-04T02:43:45.131Z,100.00
2022-12-04T02:46:25.549Z,100.00
2022-12-04T02:49:02.143Z,100.00
2022-12-04T02:51:37.388Z,100.00
2022-12-04T02:54:15.195Z,100.00
2022-12-04T02:56:49.546Z,100.00
2022-12-04T02:59:25.983Z,100.00
2022-12-04T03:02:01.158Z,100.00
2022-12-04T03:04:32.142Z,100.00
2022-12-04T03:07:12.218Z,100.00
2022-12-04T03:09:47.027Z,100.00
2022-12-04T03:12:51.277Z,100.00
2022-12-04T03:15:39.909Z,100.00
2022-12-04T03:18:19.125Z,100.00
2022-12-04T03:20:54.040Z,100.00
2022-12-04T03:23:32.165Z,100.00
2022-12-04T03:26:36.276Z,100.00
2022-12-04T03:29:28.905Z,100.00
2022-12-04T03:32:06.055Z,100.00
2022-12-04T03:34:56.731Z,100.00
2022-12-04T03:37:54.186Z,100.00
2022-12-04T03:40:37.439Z,100.00
2022-12-04T03:43:14.718Z,100.00
2022-12-04T03:45:58.599Z,100.00
2022-12-04T03:49:16.577Z,100.00
2022-12-04T03:52:02.093Z,100.00
2022-12-04T03:54:46.066Z,100.00
2022-12-04T03:57:24.516Z,100.00
2022-12-04T04:00:09.444Z,100.00
2022-12-04T04:02:50.043Z,100.00
2022-12-04T04:05:21.916Z,100.00
2022-12-04T04:08:19.474Z,100.00
2022-12-04T04:10:52.410Z,100.00
2022-12-04T04:13:51.278Z,100.00
2022-12-04T04:16:42.346Z,100.00
2022-12-04T04:19:33.083Z,100.00
2022-12-04T04:22:24.639Z,100.00
2022-12-04T04:25:05.724Z,100.00
2022-12-04T04:27:35.204Z,100.00
2022-12-04T04:30:06.868Z,100.00
2022-12-04T04:32:47.762Z,100.00
2022-12-04T04:35:26.003Z,100.00
2022-12-04T04:38:13.686Z,100.00
2022-12-04T04:40:46.102Z,100.00
2022-12-04T04:43:26.772Z,100.00
2022-12-04T04:46:06.111Z,100.00
2022-12-04T04:48:46.990Z,100.00
2022-12-04T04:51:17.203Z,100.00
2022-12-04T04:53:56.134Z,100.00
2022-12-04T04:56:26.162Z,100.00
2022-12-04T04:58:55.128Z,100.00
2022-12-04T05:01:28.527Z,100.00
2022-12-04T05:03:57.412Z,100.00
2022-12-04T05:06:27.903Z,100.00
2022-12-04T05:08:57.678Z,100.00
2022-12-04T05:11:28.032Z,100.00
2022-12-04T05:13:57.506Z,100.00
2022-12-04T05:16:27.069Z,100.00
2022-12-04T05:19:15.264Z,100.00
2022-12-04T05:21:44.747Z,100.00
2022-12-04T05:24:14.113Z,100.00
2022-12-04T05:26:43.758Z,100.00
2022-12-04T05:29:13.243Z,100.00
2022-12-04T05:31:43.027Z,100.00
2022-12-04T05:34:12.704Z,100.00
2022-12-04T05:36:42.074Z,100.00
2022-12-04T05:39:11.364Z,100.00
2022-12-04T05:41:40.686Z,100.00
2022-12-04T05:44:09.764Z,100.00
2022-12-04T05:46:38.914Z,100.00
2022-12-04T05:49:08.768Z,100.00
2022-12-04T05:51:38.184Z,100.00
2022-12-04T05:54:07.475Z,100.00
2022-12-04T05:56:36.874Z,100.00
2022-12-04T05:59:09.464Z,100.00
2022-12-04T06:01:38.203Z,100.00
2022-12-04T06:04:07.851Z,100.00
2022-12-04T06:06:36.937Z,100.00
2022-12-04T06:09:07.630Z,100.00
2022-12-04T06:11:38.512Z,100.00
2022-12-04T06:14:10.709Z,100.00
2022-12-04T06:16:43.025Z,100.00
2022-12-04T06:19:18.615Z,100.00
2022-12-04T06:21:50.315Z,100.00
2022-12-04T06:24:23.553Z,100.00
2022-12-04T06:27:26.771Z,100.00
2022-12-04T06:29:46.821Z,100.00
2022-12-04T06:32:21.192Z,100.00
2022-12-04T06:34:55.053Z,100.00
2022-12-04T06:37:25.366Z,100.00
2022-12-04T06:39:54.279Z,100.00
2022-12-04T06:42:23.365Z,100.00
2022-12-04T06:44:52.350Z,100.00
2022-12-04T06:47:21.242Z,100.00
2022-12-04T06:49:51.730Z,100.00
2022-12-04T06:52:20.760Z,100.00
2022-12-04T06:54:49.342Z,100.00
2022-12-04T06:57:18.127Z,100.00
2022-12-04T06:59:47.230Z,100.00
2022-12-04T07:02:16.376Z,100.00
2022-12-04T07:04:45.760Z,100.00
2022-12-04T07:07:15.837Z,100.00
2022-12-04T07:09:45.794Z,100.00
2022-12-04T07:12:15.784Z,100.00
2022-12-04T07:14:44.658Z,100.00
2022-12-04T07:17:13.355Z,100.00
2022-12-04T07:19:42.139Z,100.00
2022-12-04T07:22:11.023Z,100.00
2022-12-04T07:24:39.504Z,100.00
2022-12-04T07:27:08.305Z,100.00
2022-12-04T07:29:37.083Z,100.00
2022-12-04T07:32:05.952Z,100.00
2022-12-04T07:34:36.191Z,100.00
2022-12-04T07:37:04.671Z,100.00
2022-12-04T07:39:33.869Z,100.00
2022-12-04T07:42:02.455Z,100.00
2022-12-04T07:44:32.573Z,100.00
2022-12-04T07:47:01.255Z,100.00
2022-12-04T07:49:29.945Z,100.00
2022-12-04T07:51:58.528Z,100.00
2022-12-04T07:54:27.326Z,100.00
2022-12-04T07:56:56.714Z,100.00
2022-12-04T07:59:25.409Z,100.00
2022-12-04T08:01:54.053Z,100.00
2022-12-04T08:04:23.044Z,100.00
2022-12-04T08:06:52.182Z,100.00
2022-12-04T08:09:20.861Z,100.00
2022-12-04T08:11:49.472Z,100.00
2022-12-04T08:14:18.231Z,100.00
2022-12-04T08:16:52.873Z,100.00
2022-12-04T08:19:22.770Z,100.00
2022-12-04T08:21:51.764Z,100.00
2022-12-04T08:24:20.353Z,100.00
2022-12-04T08:26:49.751Z,100.00
2022-12-04T08:29:18.431Z,100.00
2022-12-04T08:31:47.023Z,100.00
2022-12-04T08:34:16.238Z,100.00
2022-12-04T08:36:44.795Z,100.00
2022-12-04T08:39:13.684Z,100.00
2022-12-04T08:41:42.272Z,100.00
2022-12-04T08:44:10.853Z,100.00
2022-12-04T08:46:39.723Z,100.00
2022-12-04T08:49:08.737Z,100.00
2022-12-04T08:51:37.829Z,100.00
2022-12-04T08:54:09.216Z,100.00
2022-12-04T08:56:38.067Z,100.00
2022-12-04T08:59:07.269Z,100.00
2022-12-04T09:01:35.767Z,99.18
2022-12-04T09:04:04.602Z,99.94
2022-12-04T09:06:33.636Z,98.81
2022-12-04T09:09:02.210Z,99.48
2022-12-04T09:11:32.959Z,100.00
2022-12-04T09:14:02.520Z,100.00
2022-12-04T09:16:31.430Z,100.00
2022-12-04T09:19:00.539Z,100.00
2022-12-04T09:21:29.533Z,97.63
2022-12-04T09:23:59.856Z,95.06
2022-12-04T09:26:31.774Z,97.60
2022-12-04T09:29:02.243Z,97.05
2022-12-04T09:31:32.473Z,92.80
2022-12-04T09:34:02.184Z,92.50
2022-12-04T09:36:30.962Z,90.75
2022-12-04T09:38:59.858Z,89.51
2022-12-04T09:41:57.415Z,89.47
2022-12-04T09:44:41.259Z,91.10
2022-12-04T09:47:23.665Z,91.09
2022-12-04T09:49:58.483Z,87.28
2022-12-04T09:52:39.545Z,88.45
2022-12-04T09:55:16.273Z,86.23
2022-12-04T09:57:48.387Z,89.59
2022-12-04T10:00:19.752Z,91.92
2022-12-04T10:03:12.825Z,87.79
2022-12-04T10:06:00.447Z,84.04
2022-12-04T10:08:35.488Z,86.93
2022-12-04T10:11:32.515Z,88.14
2022-12-04T10:14:29.067Z,84.28
2022-12-04T10:17:32.684Z,87.15
2022-12-04T10:20:04.636Z,84.08
2022-12-04T10:23:24.928Z,84.36
2022-12-04T10:25:55.557Z,85.15
2022-12-04T10:28:34.796Z,76.69
2022-12-04T10:31:06.367Z,68.83
2022-12-04T10:33:47.992Z,71.62
2022-12-04T10:36:21.934Z,74.59
2022-12-04T10:38:57.290Z,66.50
2022-12-04T10:41:52.286Z,66.98
2022-12-04T10:44:21.381Z,65.05
2022-12-04T10:46:53.922Z,61.62
2022-12-04T10:49:36.007Z,54.64
2022-12-04T10:52:05.458Z,61.85
2022-12-04T10:54:40.766Z,53.35
2022-12-04T10:57:14.299Z,54.56
2022-12-04T10:59:50.148Z,56.38
2022-12-04T11:02:28.088Z,51.83
2022-12-04T11:04:59.663Z,51.77
2022-12-04T11:07:32.661Z,45.96
2022-12-04T11:10:10.147Z,46.35
2022-12-04T11:12:38.670Z,46.97
2022-12-04T11:15:07.153Z,46.11
2022-12-04T11:17:36.149Z,46.30
2022-12-04T11:20:28.072Z,45.76
2022-12-04T11:22:59.114Z,48.97
2022-12-04T11:25:34.559Z,46.87
2022-12-04T11:28:04.499Z,45.33
2022-12-04T11:30:38.348Z,43.38
2022-12-04T11:33:18.836Z,44.90
2022-12-04T11:35:57.409Z,41.69
2022-12-04T11:38:28.613Z,40.86
2022-12-04T11:40:59.351Z,41.46
2022-12-04T11:43:30.455Z,43.76
2022-12-04T11:46:06.760Z,45.44
2022-12-04T11:48:44.312Z,45.62
2022-12-04T11:51:24.185Z,45.27
2022-12-04T11:54:12.022Z,45.26
2022-12-04T11:56:45.926Z,43.33
2022-12-04T11:59:39.697Z,42.30
2022-12-04T12:02:20.488Z,41.84
2022-12-04T12:05:18.954Z,40.44
2022-12-04T12:08:02.580Z,40.61
2022-12-04T12:10:58.612Z,39.99
2022-12-04T12:13:54.332Z,39.89
2022-12-04T12:16:38.226Z,40.06
2022-12-04T12:19:16.077Z,38.57
2022-12-04T12:21:50.399Z,37.24
2022-12-04T12:24:27.795Z,37.46
2022-12-04T12:27:46.508Z,37.34
2022-12-04T12:30:23.692Z,38.12
2022-12-04T12:33:08.385Z,38.55
2022-12-04T12:35:41.887Z,39.38
2022-12-04T12:38:16.824Z,39.25
2022-12-04T12:40:51.338Z,39.61
2022-12-04T12:43:33.324Z,39.84
2022-12-04T12:46:20.612Z,39.93
2022-12-04T12:49:23.447Z,40.15
2022-12-04T12:51:58.995Z,39.54
2022-12-04T12:54:44.578Z,39.37
2022-12-04T12:57:29.855Z,40.89
2022-12-04T13:00:05.204Z,43.28
2022-12-04T13:02:47.264Z,44.29
2022-12-04T13:05:25.797Z,45.91
2022-12-04T13:08:05.831Z,47.88
2022-12-04T13:10:54.100Z,50.12
2022-12-04T13:13:27.495Z,52.68
2022-12-04T13:16:12.730Z,54.86
2022-12-04T13:18:48.728Z,57.10
2022-12-04T13:21:37.584Z,57.68
2022-12-04T13:24:27.879Z,59.47
2022-12-04T13:27:05.573Z,60.40
2022-12-04T13:30:04.057Z,60.83
2022-12-04T13:32:42.189Z,61.29
2022-12-04T13:35:38.703Z,61.47
2022-12-04T13:38:23.974Z,62.01
2022-12-04T13:40:57.984Z,63.69
2022-12-04T13:43:35.685Z,64.82
2022-12-04T13:46:26.220Z,65.78
2022-12-04T13:48:55.864Z,66.21
2022-12-04T13:51:39.730Z,67.22
2022-12-04T13:54:11.793Z,66.27
2022-12-04T13:56:48.916Z,67.47
2022-12-04T13:59:32.464Z,68.53
2022-12-04T14:02:21.933Z,69.44
2022-12-04T14:04:59.550Z,70.38
2022-12-04T14:07:34.006Z,71.18
2022-12-04T14:10:14.567Z,72.32
2022-12-04T14:12:50.933Z,73.20
2022-12-04T14:15:26.090Z,73.74
2022-12-04T14:18:11.751Z,73.66
2022-12-04T14:20:42.847Z,75.14
2022-12-04T14:23:26.460Z,76.59
2022-12-04T14:25:58.086Z,78.36
2022-12-04T14:28:28.613Z,80.33
2022-12-04T14:31:09.387Z,79.78
2022-12-04T14:33:48.719Z,78.51
2022-12-04T14:36:33.786Z,81.75
2022-12-04T14:39:34.109Z,79.02
2022-12-04T14:42:14.060Z,80.44
2022-12-04T14:44:45.807Z,82.67
2022-12-04T14:47:40.516Z,80.43
2022-12-04T14:50:15.033Z,81.19
2022-12-04T14:53:02.259Z,80.45
2022-12-04T14:55:52.244Z,83.38
2022-12-04T14:58:31.892Z,83.35
2022-12-04T15:01:00.570Z,81.53
2022-12-04T15:03:34.825Z,80.83
2022-12-04T15:06:12.279Z,80.34
2022-12-04T15:08:50.952Z,81.38
2022-12-04T15:11:39.348Z,82.80
2022-12-04T15:14:14.687Z,80.59
2022-12-04T15:16:43.810Z,85.07
2022-12-04T15:19:23.324Z,83.44
2022-12-04T15:21:52.367Z,82.14
2022-12-04T15:24:23.613Z,83.35
2022-12-04T15:26:54.500Z,81.36
2022-12-04T15:29:28.209Z,84.18
2022-12-04T15:32:02.577Z,83.99
2022-12-04T15:34:43.498Z,83.83
2022-12-04T15:37:25.935Z,84.58
2022-12-04T15:39:57.812Z,93.80
2022-12-04T15:42:28.324Z,93.58
2022-12-04T15:45:03.953Z,94.73
2022-12-04T15:47:54.353Z,96.04
2022-12-04T15:50:24.110Z,95.93
2022-12-04T15:52:55.276Z,95.33
2022-12-04T15:55:25.510Z,95.62
2022-12-04T15:58:02.337Z,94.54
2022-12-04T16:00:38.009Z,92.78
2022-12-04T16:03:23.483Z,92.58
2022-12-04T16:06:07.150Z,89.25
2022-12-04T16:08:39.316Z,88.91
2022-12-04T16:11:23.070Z,88.03
2022-12-04T16:14:11.697Z,92.28
2022-12-04T16:16:43.971Z,94.15
2022-12-04T16:19:17.887Z,97.92
2022-12-04T16:21:46.934Z,93.25
2022-12-04T16:24:15.458Z,92.36
2022-12-04T16:26:44.043Z,93.49
2022-12-04T16:29:12.593Z,98.35
2022-12-04T16:31:41.133Z,96.44
2022-12-04T16:34:12.983Z,97.56
2022-12-04T16:36:42.040Z,97.40
2022-12-04T16:39:13.089Z,99.79
2022-12-04T16:41:42.099Z,99.25
2022-12-04T16:44:16.004Z,98.65
2022-12-04T16:46:45.108Z,97.84
2022-12-04T16:49:14.140Z,96.05
2022-12-04T16:51:46.620Z,96.05
2022-12-04T16:54:15.199Z,97.55
2022-12-04T16:56:43.725Z,98.80
2022-12-04T16:59:12.660Z,98.40
2022-12-04T17:01:46.010Z,99.22
2022-12-04T17:04:16.018Z,99.85
2022-12-04T17:06:45.946Z,98.24
2022-12-04T17:09:14.995Z,98.90
2022-12-04T17:11:44.111Z,99.95
2022-12-04T17:14:13.071Z,99.60
2022-12-04T17:16:43.764Z,99.14
2022-12-04T17:19:13.318Z,97.12
2022-12-04T17:21:42.159Z,97.58
2022-12-04T17:24:11.252Z,99.95
2022-12-04T17:26:39.834Z,100.00
2022-12-04T17:29:08.523Z,100.00
2022-12-04T17:31:37.398Z,100.00
2022-12-04T17:34:05.858Z,100.00
2022-12-04T17:36:34.355Z,100.00
2022-12-04T17:39:03.105Z,100.00
2022-12-04T17:41:33.998Z,100.00
2022-12-04T17:44:02.719Z,100.00
2022-12-04T17:46:31.284Z,100.00
2022-12-04T17:49:05.311Z,100.00
2022-12-04T17:51:36.124Z,100.00
2022-12-04T17:54:06.529Z,99.79
2022-12-04T17:56:35.125Z,98.87
2022-12-04T17:59:04.958Z,98.19
2022-12-04T18:01:33.806Z,98.39
2022-12-04T18:04:05.017Z,98.99
2022-12-04T18:06:36.723Z,99.47
2022-12-04T18:09:07.047Z,100.00
2022-12-04T18:11:37.987Z,100.00
2022-12-04T18:14:12.960Z,100.00
2022-12-04T18:16:47.755Z,100.00
2022-12-04T18:19:16.336Z,100.00
2022-12-04T18:21:44.871Z,100.00
2022-12-04T18:24:14.332Z,100.00
2022-12-04T18:26:48.407Z,100.00
2022-12-04T18:29:24.282Z,100.00
2022-12-04T18:31:53.253Z,100.00
2022-12-04T18:34:21.979Z,100.00
2022-12-04T18:36:51.080Z,100.00
2022-12-04T18:39:25.027Z,100.00
2022-12-04T18:41:57.239Z,100.00
2022-12-04T18:44:26.813Z,100.00
2022-12-04T18:46:55.216Z,100.00
2022-12-04T18:49:23.773Z,100.00
2022-12-04T18:51:52.154Z,100.00
2022-12-04T18:54:23.744Z,100.00
2022-12-04T18:56:52.477Z,99.62
2022-12-04T18:59:23.579Z,98.66
2022-12-04T19:01:53.500Z,98.47
2022-12-04T19:04:24.117Z,98.77
2022-12-04T19:06:55.243Z,99.37
2022-12-04T19:12:16.028Z,99.52
2022-12-04T19:14:44.456Z,99.88
2022-12-04T19:17:13.547Z,99.25
2022-12-04T19:19:42.905Z,98.77
2022-12-04T19:22:11.529Z,99.90
2022-12-04T19:24:40.217Z,100.00
2022-12-04T19:27:12.386Z,100.00
2022-12-04T19:29:42.812Z,100.00
2022-12-04T19:32:12.080Z,100.00
2022-12-04T19:34:41.046Z,100.00
2022-12-04T19:37:09.690Z,100.00
2022-12-04T19:39:38.325Z,100.00
2022-12-04T19:42:07.828Z,100.00
2022-12-04T19:44:52.239Z,100.00
2022-12-04T19:47:21.016Z,100.00
2022-12-04T19:49:49.706Z,100.00
2022-12-04T19:52:18.294Z,100.00
2022-12-04T19:54:46.868Z,100.00
2022-12-04T19:57:15.454Z,100.00
2022-12-04T19:59:46.631Z,100.00
2022-12-04T20:02:15.831Z,100.00
2022-12-04T20:04:45.608Z,100.00
2022-12-04T20:07:14.495Z,100.00
2022-12-04T20:09:47.404Z,100.00
2022-12-04T20:12:19.237Z,100.00
2022-12-04T20:14:48.024Z,100.00
2022-12-04T20:17:16.604Z,100.00
2022-12-04T20:19:45.191Z,100.00
2022-12-04T20:22:13.874Z,100.00
2022-12-04T20:24:43.279Z,100.00
2022-12-04T20:27:11.884Z,100.00
2022-12-04T20:29:40.757Z,100.00
2022-12-04T20:32:09.311Z,100.00
2022-12-04T20:34:43.345Z,100.00
2022-12-04T20:37:12.453Z,100.00
2022-12-04T20:39:41.128Z,100.00
2022-12-04T20:42:09.611Z,100.00
2022-12-04T20:44:38.501Z,100.00
2022-12-04T20:47:07.173Z,100.00
2022-12-04T20:49:35.661Z,100.00
2022-12-04T20:52:04.758Z,100.00
2022-12-04T20:54:37.963Z,100.00
2022-12-04T20:57:10.830Z,100.00
2022-12-04T20:59:39.312Z,100.00
2022-12-04T21:02:07.971Z,100.00
2022-12-04T21:04:38.510Z,100.00
2022-12-04T21:07:07.625Z,100.00
2022-12-04T21:09:36.412Z,100.00
2022-12-04T21:12:25.681Z,100.00
2022-12-04T21:15:13.007Z,100.00
2022-12-04T21:17:42.303Z,100.00
2022-12-04T21:20:12.140Z,100.00
2022-12-04T21:22:40.702Z,100.00
2022-12-04T21:25:10.519Z,100.00
2022-12-04T21:27:39.094Z,100.00
2022-12-04T21:30:08.621Z,100.00
2022-12-04T21:32:37.390Z,100.00
2022-12-04T21:35:06.684Z,100.00
2022-12-04T21:37:35.475Z,100.00
2022-12-04T21:40:04.538Z,100.00
2022-12-04T21:42:33.462Z,100.00
2022-12-04T21:45:06.346Z,100.00
2022-12-04T21:47:37.822Z,100.00
2022-12-04T21:50:08.819Z,100.00
2022-12-04T21:52:37.416Z,100.00
2022-12-04T21:55:06.786Z,100.00
2022-12-04T21:57:35.405Z,100.00
2022-12-04T22:00:06.096Z,100.00
2022-12-04T22:02:36.562Z,100.00
2022-12-04T22:05:05.490Z,100.00
2022-12-04T22:07:34.420Z,100.00
2022-12-04T22:10:10.047Z,100.00
2022-12-04T22:12:49.608Z,100.00
2022-12-04T22:15:19.660Z,100.00
2022-12-04T22:17:48.319Z,100.00
2022-12-04T22:20:17.741Z,100.00
2022-12-04T22:22:46.733Z,100.00
2022-12-04T22:25:15.536Z,100.00
2022-12-04T22:27:44.108Z,100.00
2022-12-04T22:30:13.504Z,100.00
2022-12-04T22:32:42.301Z,100.00
2022-12-04T22:35:12.409Z,100.00
2022-12-04T22:37:44.241Z,100.00
2022-12-04T22:40:15.085Z,100.00
2022-12-04T22:42:44.715Z,100.00
2022-12-04T22:45:13.272Z,100.00
2022-12-04T22:47:41.820Z,100.00
2022-12-04T22:50:12.369Z,100.00
2022-12-04T22:52:41.516Z,100.00
2022-12-04T22:55:10.503Z,100.00
2022-12-04T22:57:39.837Z,100.00
2022-12-04T23:00:09.723Z,100.00
2022-12-04T23:02:38.809Z,100.00
2022-12-04T23:05:08.193Z,100.00
2022-12-04T23:07:38.159Z,100.00
2022-12-04T23:10:07.839Z,100.00
2022-12-04T23:12:37.169Z,100.00
2022-12-04T23:15:06.950Z,100.00
2022-12-04T23:17:35.796Z,100.00
2022-12-04T23:20:05.244Z,100.00
2022-12-04T23:22:34.144Z,100.00
2022-12-04T23:25:04.459Z,100.00
2022-12-04T23:27:33.360Z,100.00
2022-12-04T23:30:02.244Z,100.00
2022-12-04T23:32:31.228Z,100.00
2022-12-04T23:35:00.123Z,100.00
2022-12-04T23:37:29.419Z,100.00
2022-12-04T23:39:59.266Z,100.00
2022-12-04T23:42:32.842Z,100.00
2022-12-04T23:45:01.934Z,100.00
2022-12-04T23:47:30.815Z,100.00
2022-12-04T23:50:00.667Z,100.00
2022-12-04T23:52:30.355Z,100.00
2022-12-04T23:54:59.235Z,100.00
2022-12-04T23:57:32.328Z,100.00
